sensor_id;sensor_type;location;lat;lon;timestamp;temperature;humidity
2621;DHT22;1320;48.128;11.592;2023-12-22T00:01:30;7.50;99.90
2621;DHT22;1320;48.128;11.592;2023-12-22T00:03:56;7.60;99.90
2621;DHT22;1320;48.128;11.592;2023-12-22T00:06:22;7.60;99.90
2621;DHT22;1320;48.128;11.592;2023-12-22T00:08:47;7.70;99.90
2621;DHT22;1320;48.128;11.592;2023-12-22T00:11:13;7.70;99.90
2621;DHT22;1320;48.128;11.592;2023-12-22T00:13:39;7.70;99.90
2621;DHT22;1320;48.128;11.592;2023-12-22T00:16:05;7.80;99.90
2621;DHT22;1320;48.128;11.592;2023-12-22T00:18:31;7.80;99.90
2621;DHT22;1320;48.128;11.592;2023-12-22T00:20:57;7.50;99.90
2621;DHT22;1320;48.128;11.592;2023-12-22T00:23:22;7.10;99.90
2621;DHT22;1320;48.128;11.592;2023-12-22T00:30:40;5.70;99.90
2621;DHT22;1320;48.128;11.592;2023-12-22T00:35:32;5.20;99.90
2621;DHT22;1320;48.128;11.592;2023-12-22T00:37:58;5.00;99.90
2621;DHT22;1320;48.128;11.592;2023-12-22T00:40:24;4.80;99.90
2621;DHT22;1320;48.128;11.592;2023-12-22T00:42:49;4.70;99.90
2621;DHT22;1320;48.128;11.592;2023-12-22T00:45:15;4.50;99.90
2621;DHT22;1320;48.128;11.592;2023-12-22T00:47:41;4.50;99.90
2621;DHT22;1320;48.128;11.592;2023-12-22T00:50:07;4.40;99.90
2621;DHT22;1320;48.128;11.592;2023-12-22T00:52:33;4.40;99.90
2621;DHT22;1320;48.128;11.592;2023-12-22T00:54:59;4.40;99.90
2621;DHT22;1320;48.128;11.592;2023-12-22T00:57:25;4.50;99.90
2621;DHT22;1320;48.128;11.592;2023-12-22T00:59:51;4.50;99.90
2621;DHT22;1320;48.128;11.592;2023-12-22T01:02:17;4.50;99.90
2621;DHT22;1320;48.128;11.592;2023-12-22T01:04:43;4.40;99.90
2621;DHT22;1320;48.128;11.592;2023-12-22T01:07:09;4.40;99.90
2621;DHT22;1320;48.128;11.592;2023-12-22T01:09:35;4.30;99.90
2621;DHT22;1320;48.128;11.592;2023-12-22T01:12:03;4.30;99.90
2621;DHT22;1320;48.128;11.592;2023-12-22T01:14:29;4.30;99.90
2621;DHT22;1320;48.128;11.592;2023-12-22T01:16:55;4.30;99.90
2621;DHT22;1320;48.128;11.592;2023-12-22T01:19:21;4.40;99.90
2621;DHT22;1320;48.128;11.592;2023-12-22T01:21:46;4.40;99.90
2621;DHT22;1320;48.128;11.592;2023-12-22T01:24:12;4.40;99.90
2621;DHT22;1320;48.128;11.592;2023-12-22T01:26:38;4.50;99.90
2621;DHT22;1320;48.128;11.592;2023-12-22T01:29:03;4.50;99.90
2621;DHT22;1320;48.128;11.592;2023-12-22T01:31:30;4.50;99.90
2621;DHT22;1320;48.128;11.592;2023-12-22T01:33:55;4.50;99.90
2621;DHT22;1320;48.128;11.592;2023-12-22T01:36:21;4.50;99.90
2621;DHT22;1320;48.128;11.592;2023-12-22T01:38:47;4.50;99.90
2621;DHT22;1320;48.128;11.592;2023-12-22T01:41:13;4.50;99.90
2621;DHT22;1320;48.128;11.592;2023-12-22T01:43:39;4.40;99.90
2621;DHT22;1320;48.128;11.592;2023-12-22T01:46:05;4.40;99.90
2621;DHT22;1320;48.128;11.592;2023-12-22T01:48:33;4.30;99.90
2621;DHT22;1320;48.128;11.592;2023-12-22T01:51:01;4.30;99.90
2621;DHT22;1320;48.128;11.592;2023-12-22T01:53:28;4.20;99.90
2621;DHT22;1320;48.128;11.592;2023-12-22T01:55:55;4.20;99.90
2621;DHT22;1320;48.128;11.592;2023-12-22T02:00:49;3.90;99.90
2621;DHT22;1320;48.128;11.592;2023-12-22T02:03:16;3.80;99.90
2621;DHT22;1320;48.128;11.592;2023-12-22T02:05:43;3.80;99.90
2621;DHT22;1320;48.128;11.592;2023-12-22T02:08:09;3.70;99.90
2621;DHT22;1320;48.128;11.592;2023-12-22T02:10:36;3.70;99.90
2621;DHT22;1320;48.128;11.592;2023-12-22T02:13:03;3.70;99.90
2621;DHT22;1320;48.128;11.592;2023-12-22T02:15:29;3.70;99.90
2621;DHT22;1320;48.128;11.592;2023-12-22T02:18:02;3.60;99.90
2621;DHT22;1320;48.128;11.592;2023-12-22T02:20:29;3.50;99.90
2621;DHT22;1320;48.128;11.592;2023-12-22T02:22:55;3.50;99.90
2621;DHT22;1320;48.128;11.592;2023-12-22T02:25:21;3.40;99.90
2621;DHT22;1320;48.128;11.592;2023-12-22T02:27:53;3.30;99.90
2621;DHT22;1320;48.128;11.592;2023-12-22T02:33:01;3.20;99.90
2621;DHT22;1320;48.128;11.592;2023-12-22T02:35:29;3.20;99.90
2621;DHT22;1320;48.128;11.592;2023-12-22T02:38:00;3.10;99.90
2621;DHT22;1320;48.128;11.592;2023-12-22T02:40:27;3.20;99.90
2621;DHT22;1320;48.128;11.592;2023-12-22T02:42:53;3.10;99.90
2621;DHT22;1320;48.128;11.592;2023-12-22T02:45:20;3.20;99.90
2621;DHT22;1320;48.128;11.592;2023-12-22T02:47:46;3.30;99.90
2621;DHT22;1320;48.128;11.592;2023-12-22T02:50:15;3.30;99.90
2621;DHT22;1320;48.128;11.592;2023-12-22T02:52:40;3.30;99.90
2621;DHT22;1320;48.128;11.592;2023-12-22T02:55:06;3.30;99.90
2621;DHT22;1320;48.128;11.592;2023-12-22T02:57:32;3.40;99.90
2621;DHT22;1320;48.128;11.592;2023-12-22T02:59:58;3.40;99.90
2621;DHT22;1320;48.128;11.592;2023-12-22T03:02:24;3.40;99.90
2621;DHT22;1320;48.128;11.592;2023-12-22T03:04:50;3.50;99.90
2621;DHT22;1320;48.128;11.592;2023-12-22T03:07:16;3.60;99.90
2621;DHT22;1320;48.128;11.592;2023-12-22T03:09:42;3.60;99.90
2621;DHT22;1320;48.128;11.592;2023-12-22T03:12:09;3.70;99.90
2621;DHT22;1320;48.128;11.592;2023-12-22T03:14:34;3.70;99.90
2621;DHT22;1320;48.128;11.592;2023-12-22T03:17:01;3.80;99.90
2621;DHT22;1320;48.128;11.592;2023-12-22T03:19:27;3.80;99.90
2621;DHT22;1320;48.128;11.592;2023-12-22T03:21:53;3.80;99.90
2621;DHT22;1320;48.128;11.592;2023-12-22T03:24:18;3.80;99.90
2621;DHT22;1320;48.128;11.592;2023-12-22T03:26:46;3.80;99.90
2621;DHT22;1320;48.128;11.592;2023-12-22T03:29:12;3.90;99.90
2621;DHT22;1320;48.128;11.592;2023-12-22T03:31:37;3.90;99.90
2621;DHT22;1320;48.128;11.592;2023-12-22T03:34:03;4.00;99.90
2621;DHT22;1320;48.128;11.592;2023-12-22T03:36:29;4.10;99.90
2621;DHT22;1320;48.128;11.592;2023-12-22T03:38:54;4.10;99.90
2621;DHT22;1320;48.128;11.592;2023-12-22T03:41:20;4.20;99.90
2621;DHT22;1320;48.128;11.592;2023-12-22T03:43:46;4.20;99.90
2621;DHT22;1320;48.128;11.592;2023-12-22T03:46:11;4.20;99.90
2621;DHT22;1320;48.128;11.592;2023-12-22T03:48:37;4.20;99.90
2621;DHT22;1320;48.128;11.592;2023-12-22T03:51:03;4.20;99.90
2621;DHT22;1320;48.128;11.592;2023-12-22T03:53:28;4.20;99.90
2621;DHT22;1320;48.128;11.592;2023-12-22T03:55:55;4.20;99.90
2621;DHT22;1320;48.128;11.592;2023-12-22T03:58:20;4.30;99.90
2621;DHT22;1320;48.128;11.592;2023-12-22T04:00:46;4.30;99.90
2621;DHT22;1320;48.128;11.592;2023-12-22T04:03:13;4.40;99.90
2621;DHT22;1320;48.128;11.592;2023-12-22T04:05:38;4.50;99.90
2621;DHT22;1320;48.128;11.592;2023-12-22T04:08:05;4.50;99.90
2621;DHT22;1320;48.128;11.592;2023-12-22T04:10:31;4.50;99.90
2621;DHT22;1320;48.128;11.592;2023-12-22T04:12:56;4.60;99.90
2621;DHT22;1320;48.128;11.592;2023-12-22T04:15:22;4.60;99.90
2621;DHT22;1320;48.128;11.592;2023-12-22T04:17:48;4.70;99.90
2621;DHT22;1320;48.128;11.592;2023-12-22T04:20:21;4.90;99.90
2621;DHT22;1320;48.128;11.592;2023-12-22T04:22:46;5.10;99.90
2621;DHT22;1320;48.128;11.592;2023-12-22T04:25:12;5.20;99.90
2621;DHT22;1320;48.128;11.592;2023-12-22T04:27:38;5.30;99.90
2621;DHT22;1320;48.128;11.592;2023-12-22T04:30:04;5.50;99.90
2621;DHT22;1320;48.128;11.592;2023-12-22T04:32:29;5.60;99.90
2621;DHT22;1320;48.128;11.592;2023-12-22T04:34:55;5.70;99.90
2621;DHT22;1320;48.128;11.592;2023-12-22T04:37:21;5.80;99.90
2621;DHT22;1320;48.128;11.592;2023-12-22T04:39:46;5.90;99.90
2621;DHT22;1320;48.128;11.592;2023-12-22T04:42:12;5.90;99.90
2621;DHT22;1320;48.128;11.592;2023-12-22T04:44:38;5.90;99.90
2621;DHT22;1320;48.128;11.592;2023-12-22T04:47:03;6.00;99.90
2621;DHT22;1320;48.128;11.592;2023-12-22T04:49:29;6.00;99.90
2621;DHT22;1320;48.128;11.592;2023-12-22T04:51:55;6.10;99.90
2621;DHT22;1320;48.128;11.592;2023-12-22T04:54:20;6.10;99.90
2621;DHT22;1320;48.128;11.592;2023-12-22T04:56:46;6.20;99.90
2621;DHT22;1320;48.128;11.592;2023-12-22T04:59:12;6.20;99.90
2621;DHT22;1320;48.128;11.592;2023-12-22T05:01:37;6.30;99.90
2621;DHT22;1320;48.128;11.592;2023-12-22T05:04:03;6.30;99.90
2621;DHT22;1320;48.128;11.592;2023-12-22T05:06:29;6.40;99.90
2621;DHT22;1320;48.128;11.592;2023-12-22T05:08:55;6.40;99.90
2621;DHT22;1320;48.128;11.592;2023-12-22T05:11:22;6.40;99.90
2621;DHT22;1320;48.128;11.592;2023-12-22T05:13:47;6.40;99.90
2621;DHT22;1320;48.128;11.592;2023-12-22T05:16:13;6.40;99.90
2621;DHT22;1320;48.128;11.592;2023-12-22T05:18:39;6.50;99.90
2621;DHT22;1320;48.128;11.592;2023-12-22T05:21:05;6.50;99.90
2621;DHT22;1320;48.128;11.592;2023-12-22T05:23:31;6.50;99.90
2621;DHT22;1320;48.128;11.592;2023-12-22T05:25:56;6.50;99.90
2621;DHT22;1320;48.128;11.592;2023-12-22T05:28:22;6.60;99.90
2621;DHT22;1320;48.128;11.592;2023-12-22T05:30:51;6.60;99.90
2621;DHT22;1320;48.128;11.592;2023-12-22T05:33:16;6.60;99.90
2621;DHT22;1320;48.128;11.592;2023-12-22T05:35:42;6.70;99.90
2621;DHT22;1320;48.128;11.592;2023-12-22T05:38:08;6.70;99.90
2621;DHT22;1320;48.128;11.592;2023-12-22T05:40:33;6.80;99.90
2621;DHT22;1320;48.128;11.592;2023-12-22T05:42:59;6.80;99.90
2621;DHT22;1320;48.128;11.592;2023-12-22T05:45:25;6.90;99.90
2621;DHT22;1320;48.128;11.592;2023-12-22T05:47:51;7.00;99.90
2621;DHT22;1320;48.128;11.592;2023-12-22T05:50:17;6.90;99.90
2621;DHT22;1320;48.128;11.592;2023-12-22T05:52:43;6.90;99.90
2621;DHT22;1320;48.128;11.592;2023-12-22T05:55:11;6.80;99.90
2621;DHT22;1320;48.128;11.592;2023-12-22T05:57:37;6.60;99.90
2621;DHT22;1320;48.128;11.592;2023-12-22T06:00:04;6.50;99.90
2621;DHT22;1320;48.128;11.592;2023-12-22T06:02:33;6.40;99.90
2621;DHT22;1320;48.128;11.592;2023-12-22T06:04:59;6.30;99.90
2621;DHT22;1320;48.128;11.592;2023-12-22T06:07:25;6.20;99.90
2621;DHT22;1320;48.128;11.592;2023-12-22T06:09:50;6.20;99.90
2621;DHT22;1320;48.128;11.592;2023-12-22T06:12:16;6.20;99.90
2621;DHT22;1320;48.128;11.592;2023-12-22T06:14:41;6.20;99.90
2621;DHT22;1320;48.128;11.592;2023-12-22T06:17:07;6.20;99.90
2621;DHT22;1320;48.128;11.592;2023-12-22T06:19:34;6.20;99.90
2621;DHT22;1320;48.128;11.592;2023-12-22T06:22:00;6.10;99.90
2621;DHT22;1320;48.128;11.592;2023-12-22T06:24:26;6.10;99.90
2621;DHT22;1320;48.128;11.592;2023-12-22T06:26:51;6.00;99.90
2621;DHT22;1320;48.128;11.592;2023-12-22T06:29:17;6.00;99.90
2621;DHT22;1320;48.128;11.592;2023-12-22T06:31:43;6.00;99.90
2621;DHT22;1320;48.128;11.592;2023-12-22T06:34:09;6.00;99.90
2621;DHT22;1320;48.128;11.592;2023-12-22T06:36:34;6.10;99.90
2621;DHT22;1320;48.128;11.592;2023-12-22T06:39:00;6.10;99.90
2621;DHT22;1320;48.128;11.592;2023-12-22T06:41:27;6.20;99.90
2621;DHT22;1320;48.128;11.592;2023-12-22T06:43:53;6.20;99.90
2621;DHT22;1320;48.128;11.592;2023-12-22T06:46:21;6.20;99.90
2621;DHT22;1320;48.128;11.592;2023-12-22T06:48:55;6.30;99.90
2621;DHT22;1320;48.128;11.592;2023-12-22T06:51:22;6.30;99.90
2621;DHT22;1320;48.128;11.592;2023-12-22T06:53:49;6.40;99.90
2621;DHT22;1320;48.128;11.592;2023-12-22T06:56:20;6.40;99.90
2621;DHT22;1320;48.128;11.592;2023-12-22T06:58:47;6.40;99.90
2621;DHT22;1320;48.128;11.592;2023-12-22T07:01:30;6.50;99.90
2621;DHT22;1320;48.128;11.592;2023-12-22T07:04:01;6.50;99.90
2621;DHT22;1320;48.128;11.592;2023-12-22T07:06:29;6.50;99.90
2621;DHT22;1320;48.128;11.592;2023-12-22T07:11:49;6.70;99.90
2621;DHT22;1320;48.128;11.592;2023-12-22T07:14:16;6.70;99.90
2621;DHT22;1320;48.128;11.592;2023-12-22T07:16:41;6.70;99.90
2621;DHT22;1320;48.128;11.592;2023-12-22T07:19:10;6.70;99.90
2621;DHT22;1320;48.128;11.592;2023-12-22T07:21:39;6.80;99.90
2621;DHT22;1320;48.128;11.592;2023-12-22T07:24:06;6.80;99.90
2621;DHT22;1320;48.128;11.592;2023-12-22T07:26:32;6.80;99.90
2621;DHT22;1320;48.128;11.592;2023-12-22T07:28:57;6.70;99.90
2621;DHT22;1320;48.128;11.592;2023-12-22T07:31:24;6.70;99.90
2621;DHT22;1320;48.128;11.592;2023-12-22T07:33:50;6.60;99.90
2621;DHT22;1320;48.128;11.592;2023-12-22T07:36:17;6.60;99.90
2621;DHT22;1320;48.128;11.592;2023-12-22T07:38:44;6.50;99.90
2621;DHT22;1320;48.128;11.592;2023-12-22T07:41:10;6.40;99.90
2621;DHT22;1320;48.128;11.592;2023-12-22T07:43:36;6.40;99.90
2621;DHT22;1320;48.128;11.592;2023-12-22T07:46:01;6.40;99.90
2621;DHT22;1320;48.128;11.592;2023-12-22T07:48:27;6.40;99.90
2621;DHT22;1320;48.128;11.592;2023-12-22T07:50:54;6.40;99.90
2621;DHT22;1320;48.128;11.592;2023-12-22T07:53:20;6.50;99.90
2621;DHT22;1320;48.128;11.592;2023-12-22T07:55:46;6.50;99.90
2621;DHT22;1320;48.128;11.592;2023-12-22T07:58:12;6.50;99.90
2621;DHT22;1320;48.128;11.592;2023-12-22T08:00:38;6.50;99.90
2621;DHT22;1320;48.128;11.592;2023-12-22T08:03:04;6.60;99.90
2621;DHT22;1320;48.128;11.592;2023-12-22T08:05:30;6.60;99.90
2621;DHT22;1320;48.128;11.592;2023-12-22T08:07:56;6.70;99.90
2621;DHT22;1320;48.128;11.592;2023-12-22T08:10:21;6.80;99.90
2621;DHT22;1320;48.128;11.592;2023-12-22T08:12:47;6.90;99.90
2621;DHT22;1320;48.128;11.592;2023-12-22T08:15:13;7.00;99.90
2621;DHT22;1320;48.128;11.592;2023-12-22T08:17:48;7.00;99.90
2621;DHT22;1320;48.128;11.592;2023-12-22T08:20:18;7.10;99.90
2621;DHT22;1320;48.128;11.592;2023-12-22T08:22:48;7.10;99.90
2621;DHT22;1320;48.128;11.592;2023-12-22T08:25:14;7.10;99.90
2621;DHT22;1320;48.128;11.592;2023-12-22T08:27:40;7.00;99.90
2621;DHT22;1320;48.128;11.592;2023-12-22T08:30:08;6.90;99.90
2621;DHT22;1320;48.128;11.592;2023-12-22T08:32:34;6.70;99.90
2621;DHT22;1320;48.128;11.592;2023-12-22T08:34:59;6.60;99.90
2621;DHT22;1320;48.128;11.592;2023-12-22T08:37:25;6.50;99.90
2621;DHT22;1320;48.128;11.592;2023-12-22T08:39:50;6.40;99.90
2621;DHT22;1320;48.128;11.592;2023-12-22T08:42:17;6.30;99.90
2621;DHT22;1320;48.128;11.592;2023-12-22T08:44:43;6.30;99.90
2621;DHT22;1320;48.128;11.592;2023-12-22T08:47:08;6.30;99.90
2621;DHT22;1320;48.128;11.592;2023-12-22T08:49:34;6.30;99.90
2621;DHT22;1320;48.128;11.592;2023-12-22T08:52:00;6.30;99.90
2621;DHT22;1320;48.128;11.592;2023-12-22T08:54:27;6.40;99.90
2621;DHT22;1320;48.128;11.592;2023-12-22T08:56:53;6.40;99.90
2621;DHT22;1320;48.128;11.592;2023-12-22T08:59:18;6.40;99.90
2621;DHT22;1320;48.128;11.592;2023-12-22T09:01:45;6.40;99.90
2621;DHT22;1320;48.128;11.592;2023-12-22T09:04:11;6.40;99.90
2621;DHT22;1320;48.128;11.592;2023-12-22T09:06:37;6.50;99.90
2621;DHT22;1320;48.128;11.592;2023-12-22T09:09:03;6.50;99.90
2621;DHT22;1320;48.128;11.592;2023-12-22T09:11:33;6.50;99.90
2621;DHT22;1320;48.128;11.592;2023-12-22T09:13:58;6.60;99.90
2621;DHT22;1320;48.128;11.592;2023-12-22T09:16:24;6.70;99.90
2621;DHT22;1320;48.128;11.592;2023-12-22T09:18:53;6.80;99.90
2621;DHT22;1320;48.128;11.592;2023-12-22T09:21:19;6.80;99.90
2621;DHT22;1320;48.128;11.592;2023-12-22T09:23:48;6.90;99.90
2621;DHT22;1320;48.128;11.592;2023-12-22T09:26:15;7.00;99.90
2621;DHT22;1320;48.128;11.592;2023-12-22T09:28:42;7.10;99.90
2621;DHT22;1320;48.128;11.592;2023-12-22T09:31:08;7.20;99.90
2621;DHT22;1320;48.128;11.592;2023-12-22T09:36:00;7.30;99.90
2621;DHT22;1320;48.128;11.592;2023-12-22T09:38:25;7.30;99.90
2621;DHT22;1320;48.128;11.592;2023-12-22T09:40:53;7.30;99.90
2621;DHT22;1320;48.128;11.592;2023-12-22T09:43:19;7.30;99.90
2621;DHT22;1320;48.128;11.592;2023-12-22T09:45:49;7.40;99.90
2621;DHT22;1320;48.128;11.592;2023-12-22T09:48:16;7.40;99.90
2621;DHT22;1320;48.128;11.592;2023-12-22T09:50:46;7.40;99.90
2621;DHT22;1320;48.128;11.592;2023-12-22T09:53:13;7.40;99.90
2621;DHT22;1320;48.128;11.592;2023-12-22T09:55:42;7.40;99.90
2621;DHT22;1320;48.128;11.592;2023-12-22T09:58:10;7.30;99.90
2621;DHT22;1320;48.128;11.592;2023-12-22T10:00:36;7.20;99.90
2621;DHT22;1320;48.128;11.592;2023-12-22T10:03:12;7.20;99.90
2621;DHT22;1320;48.128;11.592;2023-12-22T10:05:41;7.20;99.90
2621;DHT22;1320;48.128;11.592;2023-12-22T10:08:07;7.20;99.90
2621;DHT22;1320;48.128;11.592;2023-12-22T10:10:35;7.10;99.90
2621;DHT22;1320;48.128;11.592;2023-12-22T10:13:03;7.00;99.90
2621;DHT22;1320;48.128;11.592;2023-12-22T10:15:33;6.90;99.90
2621;DHT22;1320;48.128;11.592;2023-12-22T10:17:58;6.80;99.90
2621;DHT22;1320;48.128;11.592;2023-12-22T10:20:24;6.70;99.90
2621;DHT22;1320;48.128;11.592;2023-12-22T10:22:50;6.60;99.90
2621;DHT22;1320;48.128;11.592;2023-12-22T10:25:19;6.40;99.90
2621;DHT22;1320;48.128;11.592;2023-12-22T10:27:45;6.30;99.90
2621;DHT22;1320;48.128;11.592;2023-12-22T10:30:12;6.20;99.90
2621;DHT22;1320;48.128;11.592;2023-12-22T10:32:41;6.10;99.90
2621;DHT22;1320;48.128;11.592;2023-12-22T10:35:09;6.10;99.90
2621;DHT22;1320;48.128;11.592;2023-12-22T10:37:35;6.00;99.90
2621;DHT22;1320;48.128;11.592;2023-12-22T10:40:04;6.00;99.90
2621;DHT22;1320;48.128;11.592;2023-12-22T10:42:31;5.90;99.90
2621;DHT22;1320;48.128;11.592;2023-12-22T10:44:57;5.90;99.90
2621;DHT22;1320;48.128;11.592;2023-12-22T10:47:23;5.80;99.90
2621;DHT22;1320;48.128;11.592;2023-12-22T10:49:49;5.90;99.90
2621;DHT22;1320;48.128;11.592;2023-12-22T10:52:18;5.90;99.90
2621;DHT22;1320;48.128;11.592;2023-12-22T10:54:45;5.90;99.90
2621;DHT22;1320;48.128;11.592;2023-12-22T10:57:11;5.90;99.90
2621;DHT22;1320;48.128;11.592;2023-12-22T10:59:47;5.90;99.90
2621;DHT22;1320;48.128;11.592;2023-12-22T11:02:17;6.00;99.90
2621;DHT22;1320;48.128;11.592;2023-12-22T11:04:57;6.00;99.90
2621;DHT22;1320;48.128;11.592;2023-12-22T11:07:24;6.10;99.90
2621;DHT22;1320;48.128;11.592;2023-12-22T11:09:51;6.10;99.90
2621;DHT22;1320;48.128;11.592;2023-12-22T11:12:19;6.20;99.90
2621;DHT22;1320;48.128;11.592;2023-12-22T11:14:46;6.40;99.90
2621;DHT22;1320;48.128;11.592;2023-12-22T11:17:22;6.40;99.90
2621;DHT22;1320;48.128;11.592;2023-12-22T11:19:50;6.50;99.90
2621;DHT22;1320;48.128;11.592;2023-12-22T11:22:18;6.60;99.90
2621;DHT22;1320;48.128;11.592;2023-12-22T11:24:47;6.60;99.90
2621;DHT22;1320;48.128;11.592;2023-12-22T11:27:17;6.60;99.90
2621;DHT22;1320;48.128;11.592;2023-12-22T11:29:50;6.60;99.90
2621;DHT22;1320;48.128;11.592;2023-12-22T11:32:17;6.60;99.90
2621;DHT22;1320;48.128;11.592;2023-12-22T11:34:44;6.70;99.90
2621;DHT22;1320;48.128;11.592;2023-12-22T11:37:12;6.70;99.90
2621;DHT22;1320;48.128;11.592;2023-12-22T11:39:39;6.70;99.90
2621;DHT22;1320;48.128;11.592;2023-12-22T11:42:10;6.70;99.90
2621;DHT22;1320;48.128;11.592;2023-12-22T11:44:37;6.70;99.90
2621;DHT22;1320;48.128;11.592;2023-12-22T11:47:06;6.80;99.90
2621;DHT22;1320;48.128;11.592;2023-12-22T11:49:36;6.80;99.90
2621;DHT22;1320;48.128;11.592;2023-12-22T11:52:13;6.80;99.90
2621;DHT22;1320;48.128;11.592;2023-12-22T11:54:50;6.80;99.90
2621;DHT22;1320;48.128;11.592;2023-12-22T11:57:29;6.70;99.90
2621;DHT22;1320;48.128;11.592;2023-12-22T11:59:56;6.70;99.90
2621;DHT22;1320;48.128;11.592;2023-12-22T12:02:22;6.70;99.90
2621;DHT22;1320;48.128;11.592;2023-12-22T12:04:48;6.70;99.90
2621;DHT22;1320;48.128;11.592;2023-12-22T12:07:38;6.70;99.90
2621;DHT22;1320;48.128;11.592;2023-12-22T12:10:10;6.70;99.90
2621;DHT22;1320;48.128;11.592;2023-12-22T12:12:36;6.70;99.90
2621;DHT22;1320;48.128;11.592;2023-12-22T12:15:17;6.70;99.90
2621;DHT22;1320;48.128;11.592;2023-12-22T12:17:43;6.80;99.90
2621;DHT22;1320;48.128;11.592;2023-12-22T12:20:10;6.80;99.90
2621;DHT22;1320;48.128;11.592;2023-12-22T12:22:37;6.70;99.90
2621;DHT22;1320;48.128;11.592;2023-12-22T12:25:10;6.80;99.90
2621;DHT22;1320;48.128;11.592;2023-12-22T12:27:36;6.80;99.90
2621;DHT22;1320;48.128;11.592;2023-12-22T12:30:12;6.90;99.90
2621;DHT22;1320;48.128;11.592;2023-12-22T12:32:38;6.90;99.90
2621;DHT22;1320;48.128;11.592;2023-12-22T12:35:04;6.90;99.90
2621;DHT22;1320;48.128;11.592;2023-12-22T12:37:31;6.90;99.90
2621;DHT22;1320;48.128;11.592;2023-12-22T12:39:58;7.00;99.90
2621;DHT22;1320;48.128;11.592;2023-12-22T12:42:31;7.00;99.90
2621;DHT22;1320;48.128;11.592;2023-12-22T12:44:57;7.00;99.90
2621;DHT22;1320;48.128;11.592;2023-12-22T12:47:23;7.00;99.90
2621;DHT22;1320;48.128;11.592;2023-12-22T12:49:57;7.00;99.90
2621;DHT22;1320;48.128;11.592;2023-12-22T12:52:23;7.00;99.90
2621;DHT22;1320;48.128;11.592;2023-12-22T12:54:50;7.00;99.90
2621;DHT22;1320;48.128;11.592;2023-12-22T12:57:17;7.00;99.90
2621;DHT22;1320;48.128;11.592;2023-12-22T12:59:51;7.00;99.90
2621;DHT22;1320;48.128;11.592;2023-12-22T13:02:18;7.10;99.90
2621;DHT22;1320;48.128;11.592;2023-12-22T13:04:44;7.10;99.90
2621;DHT22;1320;48.128;11.592;2023-12-22T13:07:10;7.00;99.90
2621;DHT22;1320;48.128;11.592;2023-12-22T13:09:38;7.00;99.90
2621;DHT22;1320;48.128;11.592;2023-12-22T13:12:05;6.90;99.90
2621;DHT22;1320;48.128;11.592;2023-12-22T13:14:31;7.00;99.90
2621;DHT22;1320;48.128;11.592;2023-12-22T13:16:57;7.00;99.90
2621;DHT22;1320;48.128;11.592;2023-12-22T13:19:24;6.90;99.90
2621;DHT22;1320;48.128;11.592;2023-12-22T13:21:53;6.90;99.90
2621;DHT22;1320;48.128;11.592;2023-12-22T13:24:19;6.90;99.90
2621;DHT22;1320;48.128;11.592;2023-12-22T13:26:45;6.80;99.90
2621;DHT22;1320;48.128;11.592;2023-12-22T13:29:12;6.80;99.90
2621;DHT22;1320;48.128;11.592;2023-12-22T13:31:40;6.70;99.90
2621;DHT22;1320;48.128;11.592;2023-12-22T13:34:10;6.80;99.90
2621;DHT22;1320;48.128;11.592;2023-12-22T13:36:36;6.70;99.90
2621;DHT22;1320;48.128;11.592;2023-12-22T13:39:03;6.60;99.90
2621;DHT22;1320;48.128;11.592;2023-12-22T13:41:52;6.60;99.90
2621;DHT22;1320;48.128;11.592;2023-12-22T13:44:17;6.70;99.90
2621;DHT22;1320;48.128;11.592;2023-12-22T13:46:43;6.70;99.90
2621;DHT22;1320;48.128;11.592;2023-12-22T13:49:11;6.70;99.90
2621;DHT22;1320;48.128;11.592;2023-12-22T13:51:44;6.80;99.90
2621;DHT22;1320;48.128;11.592;2023-12-22T13:54:10;6.80;99.90
2621;DHT22;1320;48.128;11.592;2023-12-22T13:56:37;6.80;99.90
2621;DHT22;1320;48.128;11.592;2023-12-22T13:59:06;6.80;99.90
2621;DHT22;1320;48.128;11.592;2023-12-22T14:01:32;6.90;99.90
2621;DHT22;1320;48.128;11.592;2023-12-22T14:03:58;6.90;99.90
2621;DHT22;1320;48.128;11.592;2023-12-22T14:06:25;6.90;99.90
2621;DHT22;1320;48.128;11.592;2023-12-22T14:08:51;6.90;99.90
2621;DHT22;1320;48.128;11.592;2023-12-22T14:11:17;7.00;99.90
2621;DHT22;1320;48.128;11.592;2023-12-22T14:13:42;7.00;99.90
2621;DHT22;1320;48.128;11.592;2023-12-22T14:16:08;7.00;99.90
2621;DHT22;1320;48.128;11.592;2023-12-22T14:18:34;7.00;99.90
2621;DHT22;1320;48.128;11.592;2023-12-22T14:21:00;7.00;99.90
2621;DHT22;1320;48.128;11.592;2023-12-22T14:23:26;7.00;99.90
2621;DHT22;1320;48.128;11.592;2023-12-22T14:25:52;7.00;99.90
2621;DHT22;1320;48.128;11.592;2023-12-22T14:28:18;7.10;99.90
2621;DHT22;1320;48.128;11.592;2023-12-22T14:30:44;7.10;99.90
2621;DHT22;1320;48.128;11.592;2023-12-22T14:33:10;7.20;99.90
2621;DHT22;1320;48.128;11.592;2023-12-22T14:35:36;7.20;99.90
2621;DHT22;1320;48.128;11.592;2023-12-22T14:38:02;7.20;99.90
2621;DHT22;1320;48.128;11.592;2023-12-22T14:40:28;7.20;99.90
2621;DHT22;1320;48.128;11.592;2023-12-22T14:42:53;7.30;99.90
2621;DHT22;1320;48.128;11.592;2023-12-22T14:45:19;7.30;99.90
2621;DHT22;1320;48.128;11.592;2023-12-22T14:47:44;7.30;99.90
2621;DHT22;1320;48.128;11.592;2023-12-22T14:50:10;7.30;99.90
2621;DHT22;1320;48.128;11.592;2023-12-22T14:52:36;7.30;99.90
2621;DHT22;1320;48.128;11.592;2023-12-22T14:55:02;7.40;99.90
2621;DHT22;1320;48.128;11.592;2023-12-22T14:57:29;7.40;99.90
2621;DHT22;1320;48.128;11.592;2023-12-22T14:59:55;7.40;99.90
2621;DHT22;1320;48.128;11.592;2023-12-22T15:02:22;7.30;99.90
2621;DHT22;1320;48.128;11.592;2023-12-22T15:04:47;7.30;99.90
2621;DHT22;1320;48.128;11.592;2023-12-22T15:07:17;7.40;99.90
2621;DHT22;1320;48.128;11.592;2023-12-22T15:09:43;7.40;99.90
2621;DHT22;1320;48.128;11.592;2023-12-22T15:12:11;7.40;99.90
2621;DHT22;1320;48.128;11.592;2023-12-22T15:14:37;7.40;99.90
2621;DHT22;1320;48.128;11.592;2023-12-22T15:17:02;7.40;99.90
2621;DHT22;1320;48.128;11.592;2023-12-22T15:19:28;7.40;99.90
2621;DHT22;1320;48.128;11.592;2023-12-22T15:21:54;7.40;99.90
2621;DHT22;1320;48.128;11.592;2023-12-22T15:24:20;7.40;99.90
2621;DHT22;1320;48.128;11.592;2023-12-22T15:26:46;7.40;99.90
2621;DHT22;1320;48.128;11.592;2023-12-22T15:29:11;7.40;99.90
2621;DHT22;1320;48.128;11.592;2023-12-22T15:31:37;7.30;99.90
2621;DHT22;1320;48.128;11.592;2023-12-22T15:34:03;7.30;99.90
2621;DHT22;1320;48.128;11.592;2023-12-22T15:36:28;7.30;99.90
2621;DHT22;1320;48.128;11.592;2023-12-22T15:38:55;7.40;99.90
2621;DHT22;1320;48.128;11.592;2023-12-22T15:41:20;7.50;99.90
2621;DHT22;1320;48.128;11.592;2023-12-22T15:43:46;7.50;99.90
2621;DHT22;1320;48.128;11.592;2023-12-22T15:46:12;7.50;99.90
2621;DHT22;1320;48.128;11.592;2023-12-22T15:48:38;7.50;99.90
2621;DHT22;1320;48.128;11.592;2023-12-22T15:51:11;7.50;99.90
2621;DHT22;1320;48.128;11.592;2023-12-22T15:53:38;7.50;99.90
2621;DHT22;1320;48.128;11.592;2023-12-22T15:56:08;7.50;99.90
2621;DHT22;1320;48.128;11.592;2023-12-22T15:58:36;7.50;99.90
2621;DHT22;1320;48.128;11.592;2023-12-22T16:01:11;7.50;99.90
2621;DHT22;1320;48.128;11.592;2023-12-22T16:03:42;7.60;99.90
2621;DHT22;1320;48.128;11.592;2023-12-22T16:06:12;7.60;99.90
2621;DHT22;1320;48.128;11.592;2023-12-22T16:08:39;7.70;99.90
2621;DHT22;1320;48.128;11.592;2023-12-22T16:11:05;7.70;99.90
2621;DHT22;1320;48.128;11.592;2023-12-22T16:13:31;7.70;99.90
2621;DHT22;1320;48.128;11.592;2023-12-22T16:15:59;7.80;99.90
2621;DHT22;1320;48.128;11.592;2023-12-22T16:18:25;7.80;99.90